createdAt,value
2023-04-17T00:00:06.815Z,94878.00
2023-04-17T00:01:06.105Z,94880.00
2023-04-17T00:02:06.148Z,94876.00
2023-04-17T00:03:06.268Z,94878.00
2023-04-17T00:04:06.296Z,94876.00
2023-04-17T00:05:06.177Z,94876.00
2023-04-17T00:06:06.307Z,94878.00
2023-04-17T00:07:06.194Z,94876.00
2023-04-17T00:08:06.204Z,94874.00
2023-04-17T00:09:06.231Z,94874.00
2023-04-17T00:10:06.309Z,94874.00
2023-04-17T00:11:08.418Z,94876.00
2023-04-17T00:12:06.263Z,94876.00
2023-04-17T00:13:06.284Z,94874.00
2023-04-17T00:14:06.230Z,94874.00
2023-04-17T00:15:06.253Z,94872.00
2023-04-17T00:16:06.318Z,94872.00
2023-04-17T00:17:06.216Z,94870.00
2023-04-17T00:18:06.273Z,94870.00
2023-04-17T00:19:06.229Z,94872.00
2023-04-17T00:20:06.235Z,94868.00
2023-04-17T00:21:06.214Z,94870.00
2023-04-17T00:22:06.211Z,94870.00
2023-04-17T00:23:06.188Z,94870.00
2023-04-17T00:24:06.219Z,94872.00
2023-04-17T00:25:06.190Z,94870.00
2023-04-17T00:26:06.191Z,94872.00
2023-04-17T00:27:06.180Z,94868.00
2023-04-17T00:28:06.215Z,94866.00
2023-04-17T00:29:06.156Z,94868.00
2023-04-17T00:30:06.160Z,94866.00
2023-04-17T00:31:06.149Z,94868.00
2023-04-17T00:32:06.222Z,94868.00
2023-04-17T00:33:06.170Z,94868.00
2023-04-17T00:34:06.176Z,94866.00
2023-04-17T00:35:06.113Z,94866.00
2023-04-17T00:36:06.120Z,94866.00
2023-04-17T00:37:06.125Z,94868.00
2023-04-17T00:38:06.089Z,94870.00
2023-04-17T00:39:06.070Z,94868.00
2023-04-17T00:40:06.080Z,94868.00
2023-04-17T00:41:06.249Z,94866.00
2023-04-17T00:42:06.047Z,94866.00
2023-04-17T00:43:06.074Z,94870.00
2023-04-17T00:44:06.051Z,94868.00
2023-04-17T00:45:06.073Z,94866.00
2023-04-17T00:46:06.130Z,94870.00
2023-04-17T00:47:06.024Z,94866.00
2023-04-17T00:48:06.086Z,94866.00
2023-04-17T00:49:06.035Z,94866.00
2023-04-17T00:50:06.015Z,94866.00
2023-04-17T00:51:06.039Z,94866.00
2023-04-17T00:52:06.018Z,94866.00
2023-04-17T00:53:05.996Z,94868.00
2023-04-17T00:54:05.997Z,94866.00
2023-04-17T00:55:05.961Z,94866.00
2023-04-17T00:56:06.034Z,94864.00
2023-04-17T00:57:05.973Z,94864.00
2023-04-17T00:58:05.958Z,94864.00
2023-04-17T00:59:05.950Z,94862.00
2023-04-17T01:00:06.012Z,94858.00
2023-04-17T01:01:06.053Z,94862.00
2023-04-17T01:02:06.037Z,94858.00
2023-04-17T01:03:06.243Z,94858.00
2023-04-17T01:04:06.060Z,94860.00
2023-04-17T01:05:05.908Z,94858.00
2023-04-17T01:06:05.928Z,94860.00
2023-04-17T01:07:05.903Z,94860.00
2023-04-17T01:08:05.894Z,94860.00
2023-04-17T01:09:05.879Z,94860.00
2023-04-17T01:10:05.865Z,94862.00
2023-04-17T01:11:05.883Z,94860.00
2023-04-17T01:12:05.868Z,94862.00
2023-04-17T01:13:05.891Z,94860.00
2023-04-17T01:14:05.892Z,94858.00
2023-04-17T01:15:05.862Z,94860.00
2023-04-17T01:16:05.854Z,94860.00
2023-04-17T01:17:05.921Z,94860.00
2023-04-17T01:18:05.961Z,94862.00
2023-04-17T01:19:05.813Z,94862.00
2023-04-17T01:20:05.845Z,94862.00
2023-04-17T01:21:05.807Z,94862.00
2023-04-17T01:22:05.793Z,94862.00
2023-04-17T01:23:05.802Z,94868.00
2023-04-17T01:24:05.805Z,94866.00
2023-04-17T01:25:05.836Z,94866.00
2023-04-17T01:26:05.769Z,94864.00
2023-04-17T01:27:05.763Z,94866.00
2023-04-17T01:28:05.737Z,94864.00
2023-04-17T01:29:05.740Z,94864.00
2023-04-17T01:30:05.795Z,94864.00
2023-04-17T01:31:05.755Z,94864.00
2023-04-17T01:32:05.725Z,94864.00
2023-04-17T01:33:05.816Z,94866.00
2023-04-17T01:34:05.711Z,94866.00
2023-04-17T01:35:05.706Z,94864.00
2023-04-17T01:36:05.714Z,94862.00
2023-04-17T01:37:05.699Z,94864.00
2023-04-17T01:38:05.663Z,94864.00
2023-04-17T01:39:05.699Z,94864.00
2023-04-17T01:40:05.809Z,94864.00
2023-04-17T01:41:05.672Z,94864.00
2023-04-17T01:42:05.646Z,94862.00
2023-04-17T01:43:06.303Z,94864.00
2023-04-17T01:44:05.636Z,94860.00
2023-04-17T01:45:05.646Z,94862.00
2023-04-17T01:46:05.735Z,94860.00
2023-04-17T01:47:05.608Z,94862.00
2023-04-17T01:48:05.634Z,94860.00
2023-04-17T01:49:05.602Z,94862.00
2023-04-17T01:50:05.615Z,94860.00
2023-04-17T01:51:05.578Z,94862.00
2023-04-17T01:52:05.577Z,94860.00
2023-04-17T01:53:05.558Z,94860.00
2023-04-17T01:54:05.540Z,94862.00
2023-04-17T01:55:05.535Z,94858.00
2023-04-17T01:56:05.569Z,94862.00
2023-04-17T01:57:05.580Z,94862.00
2023-04-17T01:58:05.537Z,94862.00
2023-04-17T01:59:05.604Z,94864.00
2023-04-17T02:00:05.588Z,94864.00
2023-04-17T02:01:05.613Z,94862.00
2023-04-17T02:02:05.791Z,94862.00
2023-04-17T02:03:05.710Z,94860.00
2023-04-17T02:04:05.760Z,94864.00
2023-04-17T02:05:05.651Z,94858.00
2023-04-17T02:06:05.686Z,94862.00
2023-04-17T02:07:05.694Z,94856.00
2023-04-17T02:08:05.721Z,94858.00
2023-04-17T02:09:05.729Z,94856.00
2023-04-17T02:10:05.740Z,94856.00
2023-04-17T02:11:05.857Z,94860.00
2023-04-17T02:12:05.767Z,94856.00
2023-04-17T02:13:05.782Z,94860.00
2023-04-17T02:14:05.794Z,94858.00
2023-04-17T02:15:05.841Z,94860.00
2023-04-17T02:16:05.884Z,94862.00
2023-04-17T02:17:05.849Z,94858.00
2023-04-17T02:18:05.956Z,94858.00
2023-04-17T02:19:05.887Z,94864.00
2023-04-17T02:20:05.885Z,94860.00
2023-04-17T02:21:05.916Z,94860.00
2023-04-17T02:22:05.947Z,94862.00
2023-04-17T02:23:06.017Z,94864.00
2023-04-17T02:24:05.992Z,94860.00
2023-04-17T02:25:05.991Z,94864.00
2023-04-17T02:26:05.991Z,94864.00
2023-04-17T02:27:06.031Z,94864.00
2023-04-17T02:28:06.067Z,94866.00
2023-04-17T02:29:06.090Z,94864.00
2023-04-17T02:30:06.067Z,94864.00
2023-04-17T02:31:06.134Z,94864.00
2023-04-17T02:32:06.111Z,94864.00
2023-04-17T02:33:06.195Z,94866.00
2023-04-17T02:34:06.156Z,94866.00
2023-04-17T02:35:06.164Z,94866.00
2023-04-17T02:36:06.193Z,94866.00
2023-04-17T02:37:06.166Z,94866.00
2023-04-17T02:38:06.249Z,94868.00
2023-04-17T02:39:06.249Z,94868.00
2023-04-17T02:40:06.221Z,94868.00
2023-04-17T02:41:06.287Z,94868.00
2023-04-17T02:42:06.254Z,94870.00
2023-04-17T02:43:06.278Z,94868.00
2023-04-17T02:44:06.316Z,94868.00
2023-04-17T02:45:06.318Z,94868.00
2023-04-17T02:46:06.329Z,94868.00
2023-04-17T02:47:06.333Z,94868.00
2023-04-17T02:48:06.443Z,94866.00
2023-04-17T02:49:06.373Z,94864.00
2023-04-17T02:50:06.414Z,94864.00
2023-04-17T02:51:06.433Z,94866.00
2023-04-17T02:52:06.434Z,94862.00
2023-04-17T02:53:06.496Z,94862.00
2023-04-17T02:54:06.480Z,94864.00
2023-04-17T02:55:06.498Z,94864.00
2023-04-17T02:56:06.547Z,94866.00
2023-04-17T02:57:06.535Z,94864.00
2023-04-17T02:58:06.542Z,94862.00
2023-04-17T02:59:06.569Z,94862.00
2023-04-17T03:00:06.547Z,94860.00
2023-04-17T03:01:06.640Z,94858.00
2023-04-17T03:02:06.650Z,94856.00
2023-04-17T03:03:06.700Z,94856.00
2023-04-17T03:04:06.710Z,94854.00
2023-04-17T03:05:06.608Z,94854.00
2023-04-17T03:06:06.634Z,94854.00
2023-04-17T03:07:06.683Z,94854.00
2023-04-17T03:08:06.680Z,94856.00
2023-04-17T03:09:06.676Z,94856.00
2023-04-17T03:10:06.695Z,94858.00
2023-04-17T03:11:06.704Z,94856.00
2023-04-17T03:12:06.759Z,94854.00
2023-04-17T03:13:06.742Z,94856.00
2023-04-17T03:14:06.749Z,94856.00
2023-04-17T03:15:08.770Z,94856.00
2023-04-17T03:16:06.863Z,94858.00
2023-04-17T03:17:06.816Z,94858.00
2023-04-17T03:18:06.869Z,94860.00
2023-04-17T03:19:06.857Z,94856.00
2023-04-17T03:20:06.922Z,94858.00
2023-04-17T03:21:06.942Z,94856.00
2023-04-17T03:22:06.971Z,94856.00
2023-04-17T03:23:06.979Z,94858.00
2023-04-17T03:24:06.997Z,94858.00
2023-04-17T03:25:07.041Z,94854.00
2023-04-17T03:26:07.034Z,94856.00
2023-04-17T03:27:07.073Z,94856.00
2023-04-17T03:28:07.072Z,94858.00
2023-04-17T03:29:07.106Z,94856.00
2023-04-17T03:30:07.190Z,94860.00
2023-04-17T03:31:07.127Z,94858.00
2023-04-17T03:32:07.185Z,94858.00
2023-04-17T03:33:07.170Z,94862.00
2023-04-17T03:34:07.195Z,94864.00
2023-04-17T03:35:07.196Z,94862.00
2023-04-17T03:36:07.211Z,94864.00
2023-04-17T03:37:07.247Z,94864.00
2023-04-17T03:38:07.233Z,94866.00
2023-04-17T03:39:07.236Z,94866.00
2023-04-17T03:40:07.251Z,94866.00
2023-04-17T03:41:07.281Z,94868.00
2023-04-17T03:42:07.286Z,94868.00
2023-04-17T03:43:07.283Z,94868.00
2023-04-17T03:44:07.331Z,94872.00
2023-04-17T03:45:07.355Z,94870.00
2023-04-17T03:46:07.455Z,94872.00
2023-04-17T03:47:07.379Z,94872.00
2023-04-17T03:48:07.414Z,94872.00
2023-04-17T03:49:07.369Z,94868.00
2023-04-17T03:50:07.382Z,94872.00
2023-04-17T03:51:07.409Z,94870.00
2023-04-17T03:52:07.437Z,94866.00
2023-04-17T03:53:07.431Z,94870.00
2023-04-17T03:54:07.445Z,94872.00
2023-04-17T03:55:07.475Z,94872.00
2023-04-17T03:56:07.430Z,94872.00
2023-04-17T03:57:07.477Z,94874.00
2023-04-17T03:58:07.469Z,94874.00
2023-04-17T03:59:07.450Z,94874.00
2023-04-17T04:00:07.487Z,94874.00
2023-04-17T04:01:07.481Z,94876.00
2023-04-17T04:02:07.553Z,94874.00
2023-04-17T04:03:07.695Z,94878.00
2023-04-17T04:04:07.690Z,94880.00
2023-04-17T04:05:07.622Z,94878.00
2023-04-17T04:06:07.876Z,94882.00
2023-04-17T04:07:07.539Z,94880.00
2023-04-17T04:08:07.557Z,94882.00
2023-04-17T04:09:07.569Z,94884.00
2023-04-17T04:10:07.603Z,94884.00
2023-04-17T04:11:07.623Z,94884.00
2023-04-17T04:12:07.630Z,94886.00
2023-04-17T04:13:07.658Z,94887.00
2023-04-17T04:14:07.626Z,94886.00
2023-04-17T04:15:07.662Z,94886.00
2023-04-17T04:16:07.830Z,94887.00
2023-04-17T04:17:07.688Z,94884.00
2023-04-17T04:18:07.745Z,94887.00
2023-04-17T04:19:07.690Z,94887.00
2023-04-17T04:20:07.679Z,94884.00
2023-04-17T04:21:07.916Z,94884.00
2023-04-17T04:22:07.673Z,94884.00
2023-04-17T04:23:07.684Z,94884.00
2023-04-17T04:24:07.711Z,94884.00
2023-04-17T04:25:07.674Z,94884.00
2023-04-17T04:26:07.742Z,94884.00
2023-04-17T04:27:07.734Z,94884.00
2023-04-17T04:28:07.726Z,94887.00
2023-04-17T04:29:07.752Z,94886.00
2023-04-17T04:30:07.758Z,94886.00
2023-04-17T04:31:07.832Z,94882.00
2023-04-17T04:32:07.801Z,94884.00
2023-04-17T04:33:07.880Z,94886.00
2023-04-17T04:34:07.868Z,94884.00
2023-04-17T04:35:07.864Z,94886.00
2023-04-17T04:36:07.893Z,94886.00
2023-04-17T04:37:07.841Z,94886.00
2023-04-17T04:38:09.023Z,94887.00
2023-04-17T04:39:07.841Z,94889.00
2023-04-17T04:40:07.847Z,94886.00
2023-04-17T04:41:07.872Z,94887.00
2023-04-17T04:42:07.836Z,94889.00
2023-04-17T04:43:07.850Z,94887.00
2023-04-17T04:44:07.814Z,94887.00
2023-04-17T04:45:07.867Z,94887.00
2023-04-17T04:46:07.812Z,94887.00
2023-04-17T04:47:07.863Z,94887.00
2023-04-17T04:48:07.872Z,94886.00
2023-04-17T04:49:07.771Z,94887.00
2023-04-17T04:50:07.787Z,94887.00
2023-04-17T04:51:07.794Z,94889.00
2023-04-17T04:52:07.772Z,94889.00
2023-04-17T04:53:07.789Z,94889.00
2023-04-17T04:54:07.760Z,94891.00
2023-04-17T04:55:07.767Z,94895.00
2023-04-17T04:56:07.738Z,94891.00
2023-04-17T04:57:07.737Z,94891.00
2023-04-17T04:58:07.716Z,94893.00
2023-04-17T04:59:07.720Z,94895.00
2023-04-17T05:00:07.711Z,94897.00
2023-04-17T05:01:07.808Z,94899.00
2023-04-17T05:02:07.752Z,94899.00
2023-04-17T05:03:07.829Z,94899.00
2023-04-17T05:04:07.812Z,94899.00
2023-04-17T05:05:07.728Z,94899.00
2023-04-17T05:06:07.674Z,94899.00
2023-04-17T05:07:07.660Z,94899.00
2023-04-17T05:08:07.687Z,94899.00
2023-04-17T05:09:07.674Z,94901.00
2023-04-17T05:10:07.643Z,94901.00
2023-04-17T05:11:07.659Z,94897.00
2023-04-17T05:12:07.609Z,94899.00
2023-04-17T05:13:07.650Z,94901.00
2023-04-17T05:14:07.640Z,94901.00
2023-04-17T05:15:07.590Z,94909.00
2023-04-17T05:16:07.959Z,94901.00
2023-04-17T05:17:07.619Z,94901.00
2023-04-17T05:18:07.900Z,94909.00
2023-04-17T05:19:07.588Z,94901.00
2023-04-17T05:20:07.613Z,94901.00
2023-04-17T05:21:07.594Z,94909.00
2023-04-17T05:22:07.645Z,94899.00
2023-04-17T05:23:07.575Z,94899.00
2023-04-17T05:24:07.556Z,94897.00
2023-04-17T05:25:07.568Z,94901.00
2023-04-17T05:26:07.527Z,94899.00
2023-04-17T05:27:07.528Z,94901.00
2023-04-17T05:28:07.496Z,94899.00
2023-04-17T05:29:07.516Z,94901.00
2023-04-17T05:30:07.505Z,94909.00
2023-04-17T05:31:07.561Z,94909.00
2023-04-17T05:32:07.700Z,94915.00
2023-04-17T05:33:07.553Z,94911.00
2023-04-17T05:34:08.417Z,94915.00
2023-04-17T05:35:07.492Z,94917.00
2023-04-17T05:36:07.543Z,94917.00
2023-04-17T05:37:07.469Z,94921.00
2023-04-17T05:38:08.004Z,94919.00
2023-04-17T05:39:07.448Z,94915.00
2023-04-17T05:40:07.425Z,94917.00
2023-04-17T05:41:07.545Z,94919.00
2023-04-17T05:42:08.436Z,94919.00
2023-04-17T05:43:07.902Z,94919.00
2023-04-17T05:44:07.401Z,94921.00
2023-04-17T05:45:07.433Z,94919.00
2023-04-17T05:46:07.438Z,94919.00
2023-04-17T05:47:07.369Z,94921.00
2023-04-17T05:48:07.489Z,94921.00
2023-04-17T05:49:07.413Z,94921.00
2023-04-17T05:50:07.405Z,94917.00
2023-04-17T05:51:07.361Z,94917.00
2023-04-17T05:52:07.352Z,94917.00
2023-04-17T05:53:07.341Z,94915.00
2023-04-17T05:54:07.525Z,94917.00
2023-04-17T05:55:07.357Z,94919.00
2023-04-17T05:56:07.384Z,94923.00
2023-04-17T05:57:07.300Z,94923.00
2023-04-17T05:58:20.407Z,94925.00
2023-04-17T05:59:08.292Z,94923.00
2023-04-17T06:00:07.381Z,94925.00
2023-04-17T06:01:07.450Z,94929.00
2023-04-17T06:02:07.422Z,94929.00
2023-04-17T06:03:07.428Z,94931.00
2023-04-17T06:04:07.369Z,94929.00
2023-04-17T06:05:07.486Z,94929.00
2023-04-17T06:06:07.237Z,94927.00
2023-04-17T06:07:07.231Z,94927.00
2023-04-17T06:08:07.221Z,94927.00
2023-04-17T06:09:07.237Z,94925.00
2023-04-17T06:10:07.537Z,94927.00
2023-04-17T06:11:07.244Z,94927.00
2023-04-17T06:12:07.208Z,94925.00
2023-04-17T06:13:07.269Z,94927.00
2023-04-17T06:14:07.213Z,94927.00
2023-04-17T06:15:08.554Z,94931.00
2023-04-17T06:16:07.187Z,94929.00
2023-04-17T06:17:07.289Z,94931.00
2023-04-17T06:18:07.242Z,94932.00
2023-04-17T06:19:07.171Z,94936.00
2023-04-17T06:20:07.394Z,94934.00
2023-04-17T06:21:07.156Z,94936.00
2023-04-17T06:22:07.156Z,94938.00
2023-04-17T06:23:07.147Z,94940.00
2023-04-17T06:24:07.418Z,94940.00
2023-04-17T06:25:07.142Z,94940.00
2023-04-17T06:26:07.235Z,94942.00
2023-04-17T06:27:07.184Z,94942.00
2023-04-17T06:28:07.112Z,94938.00
2023-04-17T06:29:07.119Z,94940.00
2023-04-17T06:30:07.196Z,94938.00
2023-04-17T06:31:07.148Z,94940.00
2023-04-17T06:32:07.079Z,94942.00
2023-04-17T06:33:07.112Z,94942.00
2023-04-17T06:34:07.487Z,94942.00
2023-04-17T06:35:07.110Z,94944.00
2023-04-17T06:36:07.045Z,94944.00
2023-04-17T06:37:07.077Z,94944.00
2023-04-17T06:38:07.082Z,94946.00
2023-04-17T06:39:07.361Z,94950.00
2023-04-17T06:40:07.340Z,94950.00
2023-04-17T06:41:07.348Z,94952.00
2023-04-17T06:42:07.533Z,94950.00
2023-04-17T06:43:07.338Z,94952.00
2023-04-17T06:44:07.410Z,94954.00
2023-04-17T06:45:07.431Z,94952.00
2023-04-17T06:46:07.537Z,94950.00
2023-04-17T06:47:07.559Z,94952.00
2023-04-17T06:48:07.642Z,94952.00
2023-04-17T06:49:07.681Z,94948.00
2023-04-17T06:50:07.715Z,94950.00
2023-04-17T06:51:07.789Z,94946.00
2023-04-17T06:52:07.920Z,94946.00
2023-04-17T06:53:07.781Z,94954.00
2023-04-17T06:54:07.968Z,94950.00
2023-04-17T06:55:07.837Z,94950.00
2023-04-17T06:56:07.890Z,94952.00
2023-04-17T06:57:07.940Z,94956.00
2023-04-17T06:58:07.951Z,94958.00
2023-04-17T06:59:07.975Z,94956.00
2023-04-17T07:00:08.604Z,94958.00
2023-04-17T07:01:08.179Z,94956.00
2023-04-17T07:02:08.359Z,94956.00
2023-04-17T07:03:08.204Z,94954.00
2023-04-17T07:04:08.266Z,94956.00
2023-04-17T07:05:08.199Z,94958.00
2023-04-17T07:06:08.389Z,94958.00
2023-04-17T07:07:08.297Z,94960.00
2023-04-17T07:08:08.341Z,94962.00
2023-04-17T07:09:08.398Z,94966.00
2023-04-17T07:10:08.453Z,94962.00
2023-04-17T07:11:08.510Z,94966.00
2023-04-17T07:12:08.527Z,94966.00
2023-04-17T07:13:08.738Z,94964.00
2023-04-17T07:14:09.528Z,94964.00
2023-04-17T07:15:08.782Z,94966.00
2023-04-17T07:16:08.810Z,94966.00
2023-04-17T07:17:08.913Z,94964.00
2023-04-17T07:18:08.869Z,94964.00
2023-04-17T07:19:08.908Z,94962.00
2023-04-17T07:20:08.902Z,94966.00
2023-04-17T07:21:08.966Z,94962.00
2023-04-17T07:22:09.000Z,94962.00
2023-04-17T07:23:09.003Z,94962.00
2023-04-17T07:24:09.027Z,94966.00
2023-04-17T07:25:09.026Z,94964.00
2023-04-17T07:26:09.024Z,94962.00
2023-04-17T07:27:09.012Z,94962.00
2023-04-17T07:28:09.026Z,94964.00
2023-04-17T07:29:09.652Z,94964.00
2023-04-17T07:30:09.088Z,94966.00
2023-04-17T07:31:09.084Z,94962.00
2023-04-17T07:32:09.086Z,94962.00
2023-04-17T07:33:09.235Z,94966.00
2023-04-17T07:34:09.167Z,94966.00
2023-04-17T07:35:09.172Z,94964.00
2023-04-17T07:36:09.170Z,94964.00
2023-04-17T07:37:09.174Z,94964.00
2023-04-17T07:38:09.370Z,94964.00
2023-04-17T07:39:09.279Z,94962.00
2023-04-17T07:40:09.268Z,94964.00
2023-04-17T07:41:09.309Z,94966.00
2023-04-17T07:42:09.323Z,94968.00
2023-04-17T07:43:09.989Z,94968.00
2023-04-17T07:44:09.521Z,94968.00
2023-04-17T07:45:09.402Z,94970.00
2023-04-17T07:46:09.404Z,94970.00
2023-04-17T07:47:09.495Z,94972.00
2023-04-17T07:48:09.465Z,94970.00
2023-04-17T07:49:12.065Z,94966.00
2023-04-17T07:50:09.473Z,94964.00
2023-04-17T07:51:09.402Z,94964.00
2023-04-17T07:52:09.414Z,94964.00
2023-04-17T07:53:09.411Z,94964.00
2023-04-17T07:54:09.407Z,94960.00
2023-04-17T07:55:09.374Z,94962.00
2023-04-17T07:56:09.935Z,94964.00
2023-04-17T07:57:09.374Z,94956.00
2023-04-17T07:58:09.378Z,94954.00
2023-04-17T07:59:10.342Z,94956.00
2023-04-17T08:00:09.345Z,94958.00
2023-04-17T08:01:09.330Z,94958.00
2023-04-17T08:02:10.093Z,94958.00
2023-04-17T08:03:09.586Z,94958.00
2023-04-17T08:04:09.583Z,94958.00
2023-04-17T08:05:09.375Z,94962.00
2023-04-17T08:06:09.348Z,94960.00
2023-04-17T08:07:09.507Z,94954.00
2023-04-17T08:08:09.548Z,94954.00
2023-04-17T08:09:09.420Z,94956.00
2023-04-17T08:10:09.356Z,94954.00
2023-04-17T08:11:09.336Z,94954.00
2023-04-17T08:12:09.552Z,94956.00
2023-04-17T08:13:09.430Z,94952.00
2023-04-17T08:14:09.472Z,94954.00
2023-04-17T08:15:09.452Z,94956.00
2023-04-17T08:16:09.508Z,94956.00
2023-04-17T08:17:09.666Z,94956.00
2023-04-17T08:18:09.686Z,94956.00
2023-04-17T08:19:10.136Z,94956.00
2023-04-17T08:20:09.658Z,94956.00
2023-04-17T08:21:09.735Z,94952.00
2023-04-17T08:22:09.747Z,94954.00
2023-04-17T08:23:09.751Z,94960.00
2023-04-17T08:24:09.763Z,94960.00
2023-04-17T08:25:09.794Z,94954.00
2023-04-17T08:26:10.547Z,94958.00
2023-04-17T08:27:09.984Z,94960.00
2023-04-17T08:28:09.962Z,94960.00
2023-04-17T08:29:10.037Z,94958.00
2023-04-17T08:30:12.422Z,94954.00
2023-04-17T08:31:10.085Z,94956.00
2023-04-17T08:32:13.905Z,94958.00
2023-04-17T08:33:10.036Z,94956.00
2023-04-17T08:34:14.535Z,94952.00
2023-04-17T08:35:11.472Z,94956.00
2023-04-17T08:36:10.288Z,94956.00
2023-04-17T08:37:10.492Z,94952.00
2023-04-17T08:38:09.985Z,94950.00
2023-04-17T08:39:10.465Z,94954.00
2023-04-17T08:40:10.514Z,94954.00
2023-04-17T08:41:10.057Z,94950.00
2023-04-17T08:42:13.334Z,94950.00
2023-04-17T08:43:11.045Z,94950.00
2023-04-17T08:44:10.074Z,94950.00
2023-04-17T08:45:10.140Z,94948.00
2023-04-17T08:46:10.291Z,94948.00
2023-04-17T08:47:10.555Z,94946.00
2023-04-17T08:48:10.329Z,94948.00
2023-04-17T08:49:10.856Z,94946.00
2023-04-17T08:50:11.004Z,94944.00
2023-04-17T08:51:10.494Z,94944.00
2023-04-17T08:52:10.997Z,94942.00
2023-04-17T08:53:10.649Z,94944.00
2023-04-17T08:54:10.652Z,94940.00
2023-04-17T08:55:10.704Z,94938.00
2023-04-17T08:56:10.772Z,94938.00
2023-04-17T08:57:11.114Z,94936.00
2023-04-17T08:58:10.869Z,94936.00
2023-04-17T08:59:11.063Z,94936.00
2023-04-17T09:00:10.976Z,94934.00
2023-04-17T09:01:11.087Z,94934.00
2023-04-17T09:02:11.629Z,94931.00
2023-04-17T09:03:11.607Z,94932.00
2023-04-17T09:04:11.375Z,94929.00
2023-04-17T09:05:11.284Z,94927.00
2023-04-17T09:06:11.468Z,94927.00
2023-04-17T09:07:11.370Z,94927.00
2023-04-17T09:08:11.423Z,94925.00
2023-04-17T09:09:11.666Z,94927.00
2023-04-17T09:10:11.581Z,94921.00
2023-04-17T09:11:11.579Z,94923.00
2023-04-17T09:12:11.641Z,94921.00
2023-04-17T09:13:11.722Z,94917.00
2023-04-17T09:14:11.917Z,94921.00
2023-04-17T09:15:11.824Z,94919.00
2023-04-17T09:16:11.957Z,94919.00
2023-04-17T09:17:11.957Z,94921.00
2023-04-17T09:18:12.127Z,94919.00
2023-04-17T09:19:12.316Z,94919.00
2023-04-17T09:20:12.268Z,94921.00
2023-04-17T09:21:12.172Z,94923.00
2023-04-17T09:22:12.239Z,94923.00
2023-04-17T09:23:12.363Z,94923.00
2023-04-17T09:24:12.351Z,94919.00
2023-04-17T09:25:12.456Z,94919.00
2023-04-17T09:26:12.519Z,94917.00
2023-04-17T09:27:12.702Z,94919.00
2023-04-17T09:28:12.594Z,94917.00
2023-04-17T09:29:12.760Z,94917.00
2023-04-17T09:30:12.830Z,94917.00
2023-04-17T09:31:12.836Z,94913.00
2023-04-17T09:32:12.900Z,94915.00
2023-04-17T09:33:13.510Z,94919.00
2023-04-17T09:34:12.971Z,94915.00
2023-04-17T09:35:13.027Z,94917.00
2023-04-17T09:36:13.064Z,94917.00
2023-04-17T09:37:13.147Z,94915.00
2023-04-17T09:38:13.173Z,94913.00
2023-04-17T09:39:13.435Z,94917.00
2023-04-17T09:40:13.526Z,94913.00
2023-04-17T09:41:13.351Z,94913.00
2023-04-17T09:42:13.441Z,94913.00
2023-04-17T09:43:13.418Z,94913.00
2023-04-17T09:44:13.557Z,94913.00
2023-04-17T09:45:14.038Z,94913.00
2023-04-17T09:46:13.556Z,94913.00
2023-04-17T09:47:13.601Z,94913.00
2023-04-17T09:48:13.684Z,94919.00
2023-04-17T09:49:13.723Z,94915.00
2023-04-17T09:50:13.844Z,94915.00
2023-04-17T09:51:13.842Z,94911.00
2023-04-17T09:52:13.899Z,94913.00
2023-04-17T09:53:13.967Z,94915.00
2023-04-17T09:54:14.267Z,94915.00
2023-04-17T09:55:14.057Z,94913.00
2023-04-17T09:56:14.135Z,94913.00
2023-04-17T09:57:14.192Z,94915.00
2023-04-17T09:58:14.254Z,94913.00
2023-04-17T09:59:14.290Z,94913.00
2023-04-17T10:00:14.487Z,94913.00
2023-04-17T10:01:14.468Z,94911.00
2023-04-17T10:02:14.571Z,94913.00
2023-04-17T10:03:14.753Z,94913.00
2023-04-17T10:04:14.849Z,94913.00
2023-04-17T10:05:14.681Z,94913.00
2023-04-17T10:06:14.678Z,94913.00
2023-04-17T10:07:14.741Z,94911.00
2023-04-17T10:08:14.897Z,94909.00
2023-04-17T10:09:14.864Z,94901.00
2023-04-17T10:10:15.028Z,94901.00
2023-04-17T10:11:14.999Z,94901.00
2023-04-17T10:12:16.010Z,94899.00
2023-04-17T10:13:15.550Z,94895.00
2023-04-17T10:14:15.277Z,94895.00
2023-04-17T10:15:15.285Z,94895.00
2023-04-17T10:16:15.359Z,94895.00
2023-04-17T10:17:15.312Z,94895.00
2023-04-17T10:18:15.467Z,94893.00
2023-04-17T10:19:15.408Z,94893.00
2023-04-17T10:20:15.487Z,94891.00
2023-04-17T10:21:15.543Z,94895.00
2023-04-17T10:22:15.617Z,94891.00
2023-04-17T10:23:15.995Z,94891.00
2023-04-17T10:24:15.864Z,94897.00
2023-04-17T10:25:15.772Z,94895.00
2023-04-17T10:26:17.054Z,94897.00
2023-04-17T10:27:15.818Z,94893.00
2023-04-17T10:28:16.523Z,94895.00
2023-04-17T10:29:15.962Z,94891.00
2023-04-17T10:30:16.008Z,94889.00
2023-04-17T10:31:16.018Z,94891.00
2023-04-17T10:32:16.158Z,94889.00
2023-04-17T10:33:16.621Z,94891.00
2023-04-17T10:34:16.162Z,94889.00
2023-04-17T10:35:16.328Z,94893.00
2023-04-17T10:36:16.280Z,94889.00
2023-04-17T10:37:17.005Z,94889.00
2023-04-17T10:38:16.373Z,94889.00
2023-04-17T10:39:16.402Z,94886.00
2023-04-17T10:40:16.479Z,94884.00
2023-04-17T10:41:16.560Z,94887.00
2023-04-17T10:42:16.527Z,94886.00
2023-04-17T10:43:17.029Z,94886.00
2023-04-17T10:44:16.607Z,94886.00
2023-04-17T10:45:16.883Z,94884.00
2023-04-17T10:46:17.059Z,94886.00
2023-04-17T10:47:16.770Z,94886.00
2023-04-17T10:48:16.825Z,94887.00
2023-04-17T10:49:16.843Z,94886.00
2023-04-17T10:50:16.887Z,94884.00
2023-04-17T10:51:17.042Z,94884.00
2023-04-17T10:52:17.056Z,94882.00
2023-04-17T10:53:17.519Z,94882.00
2023-04-17T10:54:17.099Z,94882.00
2023-04-17T10:55:17.203Z,94880.00
2023-04-17T10:56:17.151Z,94880.00
2023-04-17T10:57:17.185Z,94880.00
2023-04-17T10:58:17.260Z,94880.00
2023-04-17T10:59:17.310Z,94880.00
2023-04-17T11:00:17.328Z,94880.00
2023-04-17T11:01:17.630Z,94880.00
2023-04-17T11:02:17.464Z,94876.00
2023-04-17T11:03:17.576Z,94882.00
2023-04-17T11:04:17.597Z,94880.00
2023-04-17T11:05:17.537Z,94884.00
2023-04-17T11:06:17.594Z,94878.00
2023-04-17T11:07:17.609Z,94880.00
2023-04-17T11:08:17.777Z,94874.00
2023-04-17T11:09:17.832Z,94870.00
2023-04-17T11:10:17.812Z,94874.00
2023-04-17T11:11:20.995Z,94872.00
2023-04-17T11:12:18.829Z,94868.00
2023-04-17T11:13:17.845Z,94874.00
2023-04-17T11:14:17.890Z,94874.00
2023-04-17T11:15:17.818Z,94874.00
2023-04-17T11:16:17.804Z,94872.00
2023-04-17T11:17:18.019Z,94874.00
2023-04-17T11:18:17.913Z,94876.00
2023-04-17T11:19:17.830Z,94876.00
2023-04-17T11:20:17.783Z,94874.00
2023-04-17T11:21:17.817Z,94876.00
2023-04-17T11:22:17.790Z,94874.00
2023-04-17T11:23:17.775Z,94876.00
2023-04-17T11:24:17.799Z,94876.00
2023-04-17T11:25:17.824Z,94872.00
2023-04-17T11:26:17.912Z,94874.00
2023-04-17T11:27:17.873Z,94874.00
2023-04-17T11:28:17.949Z,94874.00
2023-04-17T11:29:17.976Z,94872.00
2023-04-17T11:30:18.024Z,94872.00
2023-04-17T11:31:19.441Z,94874.00
2023-04-17T11:32:18.018Z,94876.00
2023-04-17T11:33:18.004Z,94876.00
2023-04-17T11:34:18.011Z,94876.00
2023-04-17T11:35:18.010Z,94876.00
2023-04-17T11:36:17.993Z,94876.00
2023-04-17T11:37:18.015Z,94872.00
2023-04-17T11:38:18.029Z,94876.00
2023-04-17T11:39:17.960Z,94874.00
2023-04-17T11:40:17.958Z,94870.00
2023-04-17T11:41:17.957Z,94872.00
2023-04-17T11:42:17.950Z,94874.00
2023-04-17T11:43:17.999Z,94874.00
2023-04-17T11:44:17.963Z,94874.00